Relevés horaires Oron (Suisse)


Relevés horaires à Oron - Jeudi 02 Août 2018
Heure UTC1 Température [°C] Vent [km/h] Hum. [%] Pres.4 [hPa] Visi. [Km] Nébu. [octa] Préc.5 [mm] Cond.
2m. Res. Ros. Dir.2 Vit. Moy. Raf.3
23:00 21.8 21.8 15.0 ENE 18.5 -- -- 65 850 -- -- -- --
22:00 21.6 21.6 15.1 ENE 16.7 -- -- 67 850 -- -- -- --
21:00 22.5 22.5 15.1 NNE 18.5 -- 33.3 63 850(0.7/3h) -- -- -- --
20:00 23.7 23.7 15.0 NE 18.5 -- -- 58 850 -- -- -- --
19:00 24.2 24.2 15.8 NE 20.4 -- -- 59 850 -- -- -- --
18:00 26.0 26.0 15.5 N 24.1 -- 35.2 52 850(-0.4/3h) -- -- 0/12h
--
17:00 27.1 27.1 15.5 NNE 14.8 -- -- 49 850 -- -- -- --
16:00 27.6 27.6 15.7 NNE 22.2 -- -- 48 850 -- -- -- --
15:00 27.2 27.2 16.3 N 20.4 -- 33.3 51 850(-0.9/3h) -- -- -- --
14:00 26.9 26.9 16.8 N 18.5 -- -- 54 850 -- -- -- --
13:00 26.4 26.4 15.8 N 20.4 -- -- 52 850 -- -- -- --
12:00 25.5 25.5 16.3 N 20.4 -- 31.5 57 850(-0.8/3h) -- -- 0/6h
--
11:00 24.0 24.0 17.7 N 18.5 -- -- 68 850 -- -- -- --
10:00 22.9 22.9 17.5 N 13.0 -- -- 72 850 -- -- -- --
09:00 20.9 20.9 17.8 NO 11.1 -- 16.7 82 850(0.5/3h) -- -- -- --
08:00 19.5 19.5 16.5 NO 5.6 -- -- 83 850 -- -- -- --
07:00 19.0 19.0 15.6 E 5.6 -- -- 81 850 -- -- -- --
06:00 17.4 17.4 15.5 ENE 1.9 -- 13.0 89 850(0.5/3h) -- -- 0.3/12h
5.5/24h
--
05:00 16.8 16.8 14.0 E 3.7 -- -- 84 850 -- -- -- --
04:00 15.9 15.8 14.1 E 9.3 -- -- 89 850 -- -- -- --
03:00 16.8 16.8 14.3 ENE 7.4 -- 11.1 85 850(-0.3/3h) -- -- -- --
02:00 17.5 17.5 14.5 E 5.6 -- -- 83 850 -- -- -- --
01:00 16.6 16.6 14.7 E 7.4 -- -- 89 850 -- -- -- --
00:00 17.5 17.5 14.7 E 3.7 -- 51.9 84 850(0.0/3h) -- -- 0.3/6h
--

1 Coordinated Universal Time. Actuellement il est 11:00 locale et 10:00 UTC.

2 Le vent souffle depuis la direction indiquée vers la direction oposée.

3 Les rafales max. sont disponible 40 min après l'heure du relevé.

4 Pour les stations d'altitude (plus de 600m) le géopotentiel du niveau le plus proche de la pression obligatoire est indiqué.

5 Les stations disposant d'un diffuseur peuvent indiquer "trace". Cela signifie que des précipitations ont touchés le sol mais que la quantité est inférieure à 0.1 mm.

Récapitulatif de la journée
Température [°C] Vent [km/h] Ensoleillement4 [h] Precipitations totale5 [mm] Pression [Hpa]
Min1 Max.2 Moy.3 Max. Min Max.
15.9 27.6 0 51.9 13 h 6 min 0 850.0 850.0

1 Température minimale relevée entre 18:00 UTC la veille et 18:00 UTC le jour donné.

2 Température maximale relevée entre 06:00 UTC le jour donné et 06:00 UTC le lendemain.

3 Vent moyen de la journée basé sur les relevés horaires.

4 Ensoleillement en heures relevé entre 06:00 UTC la veille et 06:00 UTC le jour donné.

5 Précipitations totales tombées entre 06:00 UTC la jour donné et 06:00 UTC le lendemain.

Graphiques horaires